Time;durP1;ratioP1;P1;durP2;ratioP2;P2;SDS_P1;SDS_P2;PMS_P1;PMS_P2;Temp;Humidity;BMP_temperature;BMP_pressure;BME280_temperature;BME280_humidity;BME280_pressure;Samples;Min_cycle;Max_cycle;Signal;HPM_P1;HPM_P2
2021/11/01 00:01:09;;;;;;;45.03;27.47;;;7.80;99.90;;;;;;5272325;28;20207;-63
2021/11/01 00:03:41;;;;;;;45.53;25.80;;;7.70;99.90;;;;;;5272155;28;20283;-62
2021/11/01 00:06:13;;;;;;;44.50;27.20;;;7.80;99.90;;;;;;5272392;28;20223;-66
2021/11/01 00:08:47;;;;;;;44.97;27.50;;;7.70;99.90;;;;;;5272330;28;20619;-64
2021/11/01 00:11:20;;;;;;;50.40;28.13;;;7.70;99.90;;;;;;5255041;28;20242;-68
2021/11/01 00:13:52;;;;;;;52.10;28.43;;;7.70;99.90;;;;;;5272342;28;20647;-65
2021/11/01 00:16:27;;;;;;;45.80;27.00;;;7.80;99.90;;;;;;5254776;28;20611;-65
2021/11/01 00:19:02;;;;;;;50.13;28.80;;;7.70;99.90;;;;;;5254898;28;20234;-67
2021/11/01 00:21:34;;;;;;;48.10;28.13;;;7.70;99.90;;;;;;5270785;28;20208;-64
2021/11/01 00:24:06;;;;;;;48.97;27.97;;;7.70;99.90;;;;;;5270878;28;20548;-68
2021/11/01 00:26:40;;;;;;;49.00;27.97;;;7.70;99.90;;;;;;5271620;28;20599;-68
2021/11/01 00:29:12;;;;;;;47.67;28.03;;;7.70;99.90;;;;;;5254220;28;20223;-65
2021/11/01 00:31:47;;;;;;;45.83;27.23;;;7.60;99.90;;;;;;5271881;28;20223;-69
2021/11/01 00:34:20;;;;;;;48.37;28.10;;;7.60;99.90;;;;;;5271789;28;20231;-69
2021/11/01 00:36:53;;;;;;;47.80;27.57;;;7.60;99.90;;;;;;5271495;28;20525;-64
2021/11/01 00:39:25;;;;;;;45.17;27.27;;;7.50;99.90;;;;;;5251985;28;20554;-66
2021/11/01 00:41:57;;;;;;;44.43;27.13;;;7.40;99.90;;;;;;5254095;28;20576;-63
2021/11/01 00:44:30;;;;;;;45.17;26.83;;;7.40;99.90;;;;;;5271628;28;20247;-67
2021/11/01 00:47:03;;;;;;;44.50;26.40;;;7.40;99.90;;;;;;5271692;28;20196;-64
2021/11/01 00:49:35;;;;;;;46.63;27.20;;;7.30;99.90;;;;;;5253574;28;20215;-67
2021/11/01 00:52:08;;;;;;;47.30;26.90;;;7.30;99.90;;;;;;5237306;28;20583;-62
2021/11/01 00:54:42;;;;;;;46.20;26.40;;;7.30;99.90;;;;;;5253668;28;20631;-66
2021/11/01 00:57:14;;;;;;;44.67;27.20;;;7.20;99.90;;;;;;5271810;28;20199;-64
2021/11/01 00:59:46;;;;;;;45.57;27.53;;;7.20;99.90;;;;;;5271514;28;20224;-69
2021/11/01 01:02:19;;;;;;;46.77;26.80;;;7.20;99.90;;;;;;5254055;28;20200;-68
2021/11/01 01:04:51;;;;;;;49.83;27.47;;;7.20;99.90;;;;;;5271006;28;20200;-65
2021/11/01 01:07:26;;;;;;;45.53;26.07;;;7.10;99.90;;;;;;5271080;28;20221;-65
2021/11/01 01:09:57;;;;;;;44.97;25.73;;;7.10;99.90;;;;;;5237290;28;20210;-70
2021/11/01 01:12:34;;;;;;;44.33;25.00;;;7.10;99.90;;;;;;5271331;28;20587;-68
2021/11/01 01:15:09;;;;;;;42.07;25.07;;;7.00;99.90;;;;;;5270908;28;20226;-65
2021/11/01 01:17:42;;;;;;;47.37;25.53;;;7.00;99.90;;;;;;5237189;28;20552;-68
2021/11/01 01:20:18;;;;;;;43.50;25.13;;;7.00;99.90;;;;;;5253239;28;20208;-66
2021/11/01 01:22:50;;;;;;;44.07;26.07;;;7.00;99.90;;;;;;5271041;28;20184;-64
2021/11/01 01:25:30;;;;;;;46.23;26.20;;;7.00;99.90;;;;;;5270735;28;20208;-67
2021/11/01 01:28:03;;;;;;;48.90;27.83;;;6.90;99.90;;;;;;5254126;28;20517;-66
2021/11/01 01:30:43;;;;;;;44.53;25.70;;;6.90;99.90;;;;;;5254229;28;20240;-70
2021/11/01 01:33:15;;;;;;;44.40;25.17;;;6.80;99.90;;;;;;5270947;28;20189;-71
2021/11/01 01:35:50;;;;;;;46.13;25.90;;;6.70;99.90;;;;;;5270031;28;20232;-64
2021/11/01 01:38:23;;;;;;;46.77;27.27;;;6.70;99.90;;;;;;5270476;28;20195;-64
2021/11/01 01:40:56;;;;;;;46.53;27.03;;;6.70;99.90;;;;;;5269978;28;20239;-66
2021/11/01 01:43:30;;;;;;;43.00;25.60;;;6.70;99.90;;;;;;5252863;28;20196;-66
2021/11/01 01:46:02;;;;;;;41.13;25.23;;;6.70;99.90;;;;;;5253209;28;20255;-65
2021/11/01 01:48:35;;;;;;;40.13;25.23;;;6.70;99.90;;;;;;5270425;28;20516;-64
2021/11/01 01:51:09;;;;;;;47.83;26.50;;;6.70;99.90;;;;;;5270108;28;20224;-65
2021/11/01 01:53:41;;;;;;;42.93;24.73;;;6.70;99.90;;;;;;5252380;28;20286;-67
2021/11/01 01:56:16;;;;;;;46.57;25.73;;;6.70;99.90;;;;;;5252733;28;20212;-66
2021/11/01 01:58:51;;;;;;;40.93;25.40;;;6.70;99.90;;;;;;5253116;28;20217;-64
2021/11/01 02:01:24;;;;;;;41.53;25.00;;;6.70;99.90;;;;;;5252645;28;20246;-67
2021/11/01 02:04:02;;;;;;;39.67;24.00;;;6.70;99.90;;;;;;5236191;28;20615;-64
2021/11/01 02:06:51;;;;;;;43.90;26.33;;;6.60;99.90;;;;;;5270167;28;20242;-67
2021/11/01 02:09:56;;;;;;;46.57;26.27;;;6.60;99.90;;;;;;5270287;28;20620;-66
2021/11/01 02:12:41;;;;;;;46.10;26.50;;;6.60;99.90;;;;;;5270305;28;20228;-68
2021/11/01 02:15:21;;;;;;;44.77;26.20;;;6.60;99.90;;;;;;5252141;28;20307;-67
2021/11/01 02:17:58;;;;;;;39.73;24.67;;;6.50;99.90;;;;;;5270409;28;20227;-65
2021/11/01 02:20:48;;;;;;;47.23;26.10;;;6.50;99.90;;;;;;5271215;28;20184;-68
2021/11/01 02:23:23;;;;;;;43.87;25.43;;;6.50;99.90;;;;;;5269997;28;20228;-69
2021/11/01 02:26:00;;;;;;;46.40;25.00;;;6.50;99.90;;;;;;5270214;28;20517;-66
2021/11/01 02:28:38;;;;;;;47.13;26.27;;;6.40;99.90;;;;;;5253214;28;20220;-64
2021/11/01 02:31:16;;;;;;;43.20;25.70;;;6.40;99.90;;;;;;5270142;28;20192;-63
2021/11/01 02:33:49;;;;;;;46.63;25.97;;;6.40;99.90;;;;;;5269983;28;20669;-65
2021/11/01 02:36:24;;;;;;;41.97;24.80;;;6.40;99.90;;;;;;5270308;28;20207;-69
2021/11/01 02:39:00;;;;;;;43.93;24.93;;;6.40;99.90;;;;;;5252611;28;20627;-65
2021/11/01 02:41:33;;;;;;;49.20;25.70;;;6.40;99.90;;;;;;5269362;28;20188;-65
2021/11/01 02:44:07;;;;;;;45.57;25.53;;;6.40;99.90;;;;;;5252456;28;20514;-66
2021/11/01 02:46:43;;;;;;;42.37;25.70;;;6.30;99.90;;;;;;5269813;28;20209;-67
2021/11/01 02:49:15;;;;;;;45.60;25.77;;;6.30;99.90;;;;;;5272457;28;20262;-69
2021/11/01 02:51:49;;;;;;;44.53;26.00;;;6.30;99.90;;;;;;5255405;28;20533;-65
2021/11/01 02:54:21;;;;;;;44.50;26.13;;;6.20;99.90;;;;;;5273680;28;20235;-64
2021/11/01 02:56:53;;;;;;;48.03;25.93;;;6.20;99.90;;;;;;5256259;28;20503;-66
2021/11/01 02:59:25;;;;;;;44.07;26.57;;;6.20;99.90;;;;;;5273746;28;20239;-65
2021/11/01 03:02:00;;;;;;;45.13;26.87;;;6.20;99.90;;;;;;5274200;28;20211;-65
2021/11/01 03:04:32;;;;;;;42.80;26.40;;;6.20;99.90;;;;;;5274209;28;20620;-67
2021/11/01 03:07:06;;;;;;;46.97;27.10;;;6.20;99.90;;;;;;5274125;28;20218;-65
2021/11/01 03:09:44;;;;;;;47.47;27.47;;;6.20;99.90;;;;;;5273482;28;20278;-63
2021/11/01 03:12:18;;;;;;;51.50;28.00;;;6.20;99.90;;;;;;5273325;28;20207;-64
2021/11/01 03:14:55;;;;;;;45.90;27.57;;;6.10;99.90;;;;;;5273298;28;20228;-63
2021/11/01 03:17:34;;;;;;;43.87;26.57;;;6.10;99.90;;;;;;5272827;28;20184;-68
2021/11/01 03:20:12;;;;;;;45.63;26.63;;;6.10;99.90;;;;;;5273134;28;20191;-71
2021/11/01 03:22:52;;;;;;;42.10;26.33;;;6.10;99.90;;;;;;5273464;28;20287;-65
2021/11/01 03:25:33;;;;;;;40.80;25.97;;;6.10;99.90;;;;;;5255538;28;20543;-67
2021/11/01 03:28:07;;;;;;;46.37;27.10;;;6.10;99.90;;;;;;5273104;28;20210;-66
2021/11/01 03:30:40;;;;;;;48.57;27.57;;;6.10;99.90;;;;;;5255331;28;20207;-64
2021/11/01 03:33:15;;;;;;;48.73;27.87;;;6.00;99.90;;;;;;5273137;28;20208;-63
2021/11/01 03:35:51;;;;;;;48.07;28.10;;;6.00;99.90;;;;;;5272762;28;20235;-62
2021/11/01 03:38:25;;;;;;;43.87;26.70;;;6.00;99.90;;;;;;5273731;28;20226;-71
2021/11/01 03:40:58;;;;;;;46.43;26.97;;;5.90;99.90;;;;;;5272704;28;20231;-67
2021/11/01 03:43:36;;;;;;;49.13;27.63;;;5.90;99.90;;;;;;5273229;28;20308;-67
2021/11/01 03:46:09;;;;;;;46.83;26.77;;;5.80;99.90;;;;;;5256208;28;20202;-67
2021/11/01 03:48:43;;;;;;;50.33;26.67;;;5.80;99.90;;;;;;5272177;28;20515;-64
2021/11/01 03:54:06;;;;;;;47.17;27.47;;;5.70;99.90;;;;;;5272737;28;20235;-68
2021/11/01 03:56:41;;;;;;;45.40;27.80;;;5.60;99.90;;;;;;5272505;28;20211;-65
2021/11/01 03:59:14;;;;;;;44.30;27.70;;;5.60;99.90;;;;;;5272224;28;20223;-63
2021/11/01 04:01:47;;;;;;;47.53;27.00;;;5.50;99.90;;;;;;5254824;28;20197;-62
2021/11/01 04:04:21;;;;;;;46.10;27.43;;;5.50;99.90;;;;;;5272162;28;20224;-65
2021/11/01 04:06:54;;;;;;;51.93;28.53;;;5.50;99.90;;;;;;5254298;28;20200;-64
2021/11/01 04:09:28;;;;;;;47.13;29.20;;;5.50;99.90;;;;;;5238341;28;20530;-70
2021/11/01 04:12:00;;;;;;;47.30;28.47;;;5.50;99.90;;;;;;5272163;28;20519;-65
2021/11/01 04:14:40;;;;;;;52.63;29.87;;;5.50;99.90;;;;;;5272083;28;20247;-69
2021/11/01 04:23:01;;;;;;;49.43;28.33;;;5.50;99.90;;;;;;5271940;28;20204;-70
2021/11/01 04:25:35;;;;;;;47.90;28.73;;;5.50;99.90;;;;;;5254287;28;20259;-66
2021/11/01 04:28:17;;;;;;;51.80;29.00;;;5.50;99.90;;;;;;5255875;28;20207;-62
2021/11/01 04:30:55;;;;;;;45.70;27.43;;;5.50;99.90;;;;;;5271702;28;20242;-64
2021/11/01 04:33:28;;;;;;;48.67;28.43;;;5.60;99.90;;;;;;5271702;28;20202;-66
2021/11/01 04:36:02;;;;;;;44.60;27.53;;;5.60;99.90;;;;;;5270816;28;20242;-65
2021/11/01 04:41:20;;;;;;;50.70;28.27;;;5.70;99.90;;;;;;5270859;28;20247;-68
2021/11/01 04:55:22;;;;;;;46.40;27.10;;;5.80;99.90;;;;;;5270419;28;20208;-64
2021/11/01 04:57:57;;;;;;;46.57;26.50;;;5.80;99.90;;;;;;5271931;28;20189;-65
2021/11/01 05:00:29;;;;;;;49.23;29.17;;;5.80;99.90;;;;;;5253843;28;20210;-65
2021/11/01 05:03:08;;;;;;;47.30;27.83;;;5.80;99.90;;;;;;5271646;28;20640;-65
2021/11/01 05:05:40;;;;;;;45.67;26.97;;;5.70;99.90;;;;;;5271404;28;20284;-66
2021/11/01 05:08:13;;;;;;;45.90;27.37;;;5.70;99.90;;;;;;5253551;28;20204;-66
2021/11/01 05:10:49;;;;;;;50.33;28.13;;;5.70;99.90;;;;;;5270032;28;20200;-67
2021/11/01 05:13:29;;;;;;;49.77;27.60;;;5.60;99.90;;;;;;5255748;28;20215;-62
2021/11/01 05:16:09;;;;;;;46.40;27.73;;;5.60;99.90;;;;;;5254397;28;20239;-64
2021/11/01 05:18:49;;;;;;;55.33;28.67;;;5.50;99.90;;;;;;5254908;28;20184;-66
2021/11/01 05:24:03;;;;;;;54.07;29.10;;;5.50;99.90;;;;;;5271035;28;20188;-67
2021/11/01 05:29:13;;;;;;;51.40;27.80;;;5.40;99.90;;;;;;5270615;28;20199;-65
2021/11/01 05:32:00;;;;;;;45.27;27.67;;;5.40;99.90;;;;;;5270197;28;20623;-64
2021/11/01 05:34:32;;;;;;;48.73;26.63;;;5.30;99.90;;;;;;5270445;28;20192;-64
2021/11/01 05:37:07;;;;;;;49.70;28.13;;;5.30;99.90;;;;;;5253077;28;20231;-65
2021/11/01 05:39:40;;;;;;;57.63;29.27;;;5.30;99.90;;;;;;5270498;28;20228;-65
2021/11/01 05:42:12;;;;;;;55.40;31.10;;;5.30;99.90;;;;;;5269824;28;20227;-65
2021/11/01 05:44:44;;;;;;;51.00;29.43;;;5.40;99.90;;;;;;5253304;28;20230;-65
2021/11/01 05:47:16;;;;;;;53.57;29.80;;;5.30;99.90;;;;;;5270602;28;20238;-65
2021/11/01 05:49:50;;;;;;;51.50;29.33;;;5.30;99.90;;;;;;5252872;28;20211;-66
2021/11/01 05:52:27;;;;;;;55.13;28.87;;;5.40;99.90;;;;;;5252614;28;20238;-64
2021/11/01 05:55:10;;;;;;;50.50;29.73;;;5.40;99.90;;;;;;5252755;28;20215;-66
2021/11/01 06:01:36;;;;;;;50.90;28.43;;;5.40;99.90;;;;;;5194764;28;20244;-66
2021/11/01 06:03:59;;;;;;;54.00;30.27;;;5.40;99.90;;;;;;5266598;28;20235;-65
2021/11/01 06:06:54;;;;;;;53.20;29.17;;;5.50;99.90;;;;;;5254414;28;20620;-66
2021/11/01 06:14:51;;;;;;;50.37;28.57;;;5.90;99.90;;;;;;5269855;28;20604;-64
2021/11/01 06:17:23;;;;;;;48.53;28.70;;;6.30;99.90;;;;;;5270215;28;20553;-68
2021/11/01 06:19:55;;;;;;;45.83;27.93;;;6.70;99.90;;;;;;5271155;28;20504;-66
2021/11/01 06:22:27;;;;;;;45.07;27.47;;;7.30;99.90;;;;;;5272205;28;20200;-62
2021/11/01 06:25:05;;;;;;;42.83;25.73;;;7.80;99.90;;;;;;5274978;28;20192;-67
2021/11/01 06:27:40;;;;;;;42.30;26.57;;;8.30;99.90;;;;;;5274364;28;20288;-67
2021/11/01 06:30:20;;;;;;;39.77;25.07;;;8.80;99.90;;;;;;5274584;28;20545;-68
2021/11/01 07:17:25;;;;;;;42.50;25.53;;;8.20;99.90;;;;;;5255843;28;20225;-68
2021/11/01 07:20:11;;;;;;;38.43;23.13;;;8.20;99.90;;;;;;5272465;28;20228;-67
2021/11/01 08:36:53;;;;;;;35.60;21.07;;;8.60;99.90;;;;;;5271441;28;20318;-63
2021/11/01 08:40:03;;;;;;;39.50;21.37;;;8.80;99.90;;;;;;5208802;28;20259;-73
2021/11/01 09:01:44;;;;;;;30.70;19.83;;;9.90;99.90;;;;;;5271149;28;20220;-66
2021/11/01 09:04:34;;;;;;;31.20;20.17;;;10.00;99.90;;;;;;5271560;28;20296;-67
2021/11/01 09:23:51;;;;;;;33.93;18.97;;;10.50;99.90;;;;;;5187466;28;20180;-68
2021/11/01 09:26:44;;;;;;;33.63;20.87;;;10.60;99.90;;;;;;5191453;28;20571;-67
2021/11/01 09:43:16;;;;;;;30.80;19.23;;;10.80;99.90;;;;;;5254910;28;20220;-69
2021/11/01 09:46:10;;;;;;;29.47;18.90;;;10.90;99.90;;;;;;5255604;28;20211;-65
2021/11/01 09:48:42;;;;;;;35.63;19.93;;;10.90;99.90;;;;;;5269504;28;20236;-66
2021/11/01 09:51:34;;;;;;;32.63;18.83;;;10.90;99.90;;;;;;5269988;28;20515;-68
2021/11/01 09:54:09;;;;;;;32.27;19.77;;;11.00;99.90;;;;;;5252625;28;20641;-68
2021/11/01 09:59:20;;;;;;;27.97;17.97;;;11.00;99.90;;;;;;5269985;28;20246;-71
2021/11/01 10:01:52;;;;;;;27.97;17.97;;;11.10;99.90;;;;;;5233524;28;20195;-65
2021/11/01 10:04:30;;;;;;;28.83;18.60;;;11.10;99.90;;;;;;5166187;28;20300;-67
2021/11/01 10:07:35;;;;;;;29.30;18.20;;;11.20;99.90;;;;;;5268842;28;20228;-69
2021/11/01 10:10:12;;;;;;;28.53;18.47;;;11.30;99.90;;;;;;5184397;28;20228;-68
2021/11/01 10:12:47;;;;;;;27.40;18.07;;;11.30;99.90;;;;;;5269633;28;20615;-71
2021/11/01 10:18:32;;;;;;;31.37;18.27;;;11.50;99.90;;;;;;5269115;28;20188;-68
2021/11/01 10:21:04;;;;;;;27.27;17.93;;;11.60;99.90;;;;;;5269761;28;20248;-69
2021/11/01 10:23:59;;;;;;;29.03;18.50;;;11.60;99.90;;;;;;5269651;28;20184;-67
2021/11/01 10:26:31;;;;;;;27.47;17.60;;;11.60;99.90;;;;;;5269658;28;20543;-66
2021/11/01 10:29:26;;;;;;;27.30;16.97;;;11.70;99.90;;;;;;5269307;28;20327;-66
2021/11/01 10:31:58;;;;;;;29.90;17.63;;;11.80;99.90;;;;;;5184230;28;20192;-67
2021/11/01 10:34:32;;;;;;;27.33;17.17;;;11.80;99.90;;;;;;5267869;28;20224;-67
2021/11/01 10:37:10;;;;;;;26.73;17.07;;;11.90;99.90;;;;;;5235489;28;20216;-69
2021/11/01 10:39:52;;;;;;;29.17;17.23;;;12.00;99.90;;;;;;5267651;28;20220;-67
2021/11/01 10:42:30;;;;;;;25.80;15.87;;;12.10;99.90;;;;;;5270223;28;20190;-69
2021/11/01 10:56:49;;;;;;;25.57;16.53;;;12.40;99.90;;;;;;5270084;28;20192;-71
2021/11/01 10:57:53;;;;;;;26.73;16.60;;;12.40;99.90;;;;;;5269370;28;20624;-70
2021/11/01 11:14:24;;;;;;;24.17;14.47;;;12.90;99.90;;;;;;5273365;28;20612;-65
2021/11/01 11:19:56;;;;;;;23.23;15.07;;;13.10;99.90;;;;;;5271916;28;20709;-64
2021/11/01 11:39:38;;;;;;;24.00;14.57;;;14.10;99.90;;;;;;5271365;28;20247;-62
2021/11/01 11:50:49;;;;;;;22.73;14.33;;;14.00;99.90;;;;;;5269858;28;20635;-66
2021/11/01 11:53:26;;;;;;;23.73;15.20;;;14.00;99.90;;;;;;5268354;28;20254;-68
2021/11/01 11:56:10;;;;;;;25.80;16.07;;;14.00;99.90;;;;;;5238252;28;20199;-68
2021/11/01 11:58:49;;;;;;;26.00;14.77;;;14.00;99.90;;;;;;5257156;28;20674;-67
2021/11/01 12:01:43;;;;;;;23.67;15.30;;;13.90;99.90;;;;;;5269772;28;20192;-67
2021/11/01 12:04:33;;;;;;;23.77;14.80;;;13.90;99.90;;;;;;5271555;28;20250;-67
2021/11/01 12:07:07;;;;;;;21.83;14.93;;;13.80;99.90;;;;;;5271561;28;20207;-68
2021/11/01 12:09:57;;;;;;;20.37;14.23;;;13.80;99.90;;;;;;5271951;28;20243;-68
2021/11/01 12:17:57;;;;;;;22.90;15.03;;;13.80;99.90;;;;;;5256626;28;20226;-65
2021/11/01 12:20:29;;;;;;;23.33;14.77;;;13.80;99.90;;;;;;5253711;28;20211;-67
2021/11/01 12:23:06;;;;;;;21.97;14.47;;;13.80;99.90;;;;;;5271519;28;20532;-66
2021/11/01 12:25:41;;;;;;;22.93;14.77;;;13.80;99.90;;;;;;5253960;28;20515;-66
2021/11/01 12:28:17;;;;;;;22.30;15.13;;;13.80;99.90;;;;;;5272125;28;20218;-66
2021/11/01 12:30:51;;;;;;;21.90;14.43;;;13.70;99.90;;;;;;5291616;28;20299;-68
2021/11/01 12:33:25;;;;;;;26.17;16.10;;;13.70;99.90;;;;;;5253750;28;20510;-67
2021/11/01 12:36:06;;;;;;;22.33;14.93;;;13.60;99.90;;;;;;5232961;28;20224;-67
2021/11/01 12:38:56;;;;;;;22.93;15.37;;;13.60;99.90;;;;;;5232783;28;20208;-69
2021/11/01 12:57:42;;;;;;;23.50;15.67;;;13.60;99.90;;;;;;5232896;28;20652;-67
2021/11/01 13:00:17;;;;;;;23.53;14.73;;;13.60;99.90;;;;;;5269799;28;20192;-69
2021/11/01 13:02:49;;;;;;;23.50;15.83;;;13.60;99.90;;;;;;5269971;28;20643;-66
2021/11/01 13:05:25;;;;;;;24.87;15.80;;;13.60;99.90;;;;;;5185537;28;20185;-69
2021/11/01 13:08:09;;;;;;;27.67;16.57;;;13.50;99.90;;;;;;5270414;28;20200;-67
2021/11/01 13:10:48;;;;;;;30.80;17.17;;;13.50;99.90;;;;;;5270282;28;20207;-68
2021/11/01 13:19:13;;;;;;;26.57;16.10;;;13.30;99.90;;;;;;5266431;28;20204;-67
2021/11/01 13:36:26;;;;;;;26.07;15.93;;;13.10;99.90;;;;;;5266258;28;20604;-69
2021/11/01 13:39:04;;;;;;;25.83;16.10;;;12.90;99.90;;;;;;5269859;28;20295;-66
2021/11/01 13:41:46;;;;;;;26.63;15.73;;;12.90;99.90;;;;;;5144382;28;20192;-66
2021/11/01 13:44:25;;;;;;;24.00;15.50;;;12.80;99.90;;;;;;5225878;28;20511;-67
2021/11/01 13:47:02;;;;;;;26.57;16.47;;;12.80;99.90;;;;;;5178567;28;20201;-66
2021/11/01 13:49:37;;;;;;;25.50;16.47;;;12.80;99.90;;;;;;5188671;28;20220;-66
2021/11/01 13:55:04;;;;;;;24.63;16.70;;;12.70;99.90;;;;;;5161415;28;20185;-68
2021/11/01 13:58:56;;;;;;;26.00;16.40;;;12.60;99.90;;;;;;5186669;28;20224;-66
2021/11/01 14:15:03;;;;;;;26.17;16.30;;;12.30;99.90;;;;;;5163444;28;20234;-66
2021/11/01 14:20:34;;;;;;;25.50;15.90;;;12.10;99.90;;;;;;5203999;28;20674;-66
2021/11/01 14:29:03;;;;;;;27.73;16.37;;;11.90;99.90;;;;;;5199787;28;20188;-66
2021/11/01 15:08:48;;;;;;;29.57;17.90;;;10.80;99.90;;;;;;5154275;28;20218;-68
2021/11/01 15:16:58;;;;;;;33.33;19.10;;;10.60;99.90;;;;;;5166634;28;20224;-69
2021/11/01 15:28:27;;;;;;;30.07;18.50;;;10.30;99.90;;;;;;5203210;28;20232;-67
2021/11/01 15:34:05;;;;;;;32.83;19.57;;;10.20;99.90;;;;;;5205022;28;20226;-66
2021/11/01 16:16:13;;;;;;;39.93;21.67;;;9.50;99.90;;;;;;5272157;28;20684;-67
2021/11/01 16:18:44;;;;;;;35.30;21.23;;;9.50;99.90;;;;;;5271977;28;20364;-68
2021/11/01 16:21:19;;;;;;;39.77;21.57;;;9.60;99.90;;;;;;5254427;28;20654;-67
2021/11/01 16:23:54;;;;;;;35.97;22.27;;;9.60;99.90;;;;;;5272050;28;20211;-67
2021/11/01 16:26:47;;;;;;;36.73;22.47;;;9.70;99.90;;;;;;5272112;28;20200;-68
2021/11/01 16:29:46;;;;;;;36.03;22.37;;;9.80;99.90;;;;;;5271537;28;20634;-68
2021/11/01 16:32:36;;;;;;;37.33;23.00;;;9.90;99.90;;;;;;5239414;28;20214;-67
2021/11/01 16:35:16;;;;;;;37.93;20.87;;;9.90;99.90;;;;;;5271387;28;20231;-68
2021/11/01 16:38:09;;;;;;;34.17;21.60;;;10.00;99.90;;;;;;5253854;28;20218;-68
2021/11/01 16:40:43;;;;;;;36.47;20.20;;;10.00;99.90;;;;;;5271183;28;20263;-65
2021/11/01 16:43:19;;;;;;;35.63;20.97;;;10.20;99.90;;;;;;5237259;28;20240;-67
2021/11/01 16:45:53;;;;;;;36.20;21.50;;;10.20;99.90;;;;;;5271187;28;20220;-67
2021/11/01 16:48:24;;;;;;;37.03;21.57;;;10.30;99.90;;;;;;5269477;28;20200;-64
2021/11/01 16:51:01;;;;;;;39.57;22.80;;;10.30;99.90;;;;;;5253052;28;20232;-65
2021/11/01 16:53:49;;;;;;;48.17;27.23;;;10.40;99.90;;;;;;5271520;28;20184;-67
2021/11/01 16:59:27;;;;;;;39.37;22.80;;;10.50;99.90;;;;;;5270427;28;20224;-67
2021/11/01 17:02:12;;;;;;;43.30;24.50;;;10.50;99.90;;;;;;5270786;28;20525;-65
2021/11/01 17:08:13;;;;;;;44.20;25.43;;;10.50;99.90;;;;;;5240983;28;20223;-68
2021/11/01 17:25:24;;;;;;;33.17;19.33;;;10.50;99.90;;;;;;5215024;28;20200;-64
2021/11/01 17:28:24;;;;;;;32.43;19.47;;;10.60;99.90;;;;;;5252668;28;20234;-68
2021/11/01 17:37:27;;;;;;;34.10;20.10;;;10.60;99.90;;;;;;5271073;28;20216;-66
2021/11/01 18:46:26;;;;;;;53.47;30.83;;;10.40;99.90;;;;;;5278173;28;20220;-69
2021/11/01 18:52:11;;;;;;;59.47;33.60;;;10.50;99.90;;;;;;5196532;28;20239;-67
2021/11/01 18:54:51;;;;;;;56.83;32.77;;;10.50;99.90;;;;;;5280203;28;20226;-70
2021/11/01 18:57:29;;;;;;;61.50;32.10;;;10.50;99.90;;;;;;5279492;28;20228;-68
2021/11/01 19:00:05;;;;;;;54.60;31.03;;;10.50;99.90;;;;;;5260539;28;20718;-70
2021/11/01 19:02:45;;;;;;;53.87;29.67;;;10.50;99.90;;;;;;5275512;28;20220;-70
2021/11/01 20:03:05;;;;;;;43.90;25.63;;;10.00;99.90;;;;;;5273001;28;20525;-73
2021/11/01 20:05:51;;;;;;;38.80;23.83;;;10.00;99.90;;;;;;5256319;28;20220;-68
2021/11/01 20:13:54;;;;;;;33.87;22.27;;;10.00;99.90;;;;;;5281565;28;20208;-65
2021/11/01 21:25:43;;;;;;;44.77;24.57;;;9.40;99.90;;;;;;5128097;28;20521;-75
2021/11/01 21:28:20;;;;;;;38.87;24.13;;;9.40;99.90;;;;;;5164705;28;20568;-73
2021/11/01 21:30:52;;;;;;;43.67;24.03;;;9.40;99.90;;;;;;5164948;28;20649;-75
2021/11/01 21:33:31;;;;;;;42.67;24.87;;;9.30;99.90;;;;;;5148138;28;20276;-71
2021/11/01 21:36:11;;;;;;;39.27;23.17;;;9.30;99.90;;;;;;5164877;28;20661;-70
2021/11/01 21:38:43;;;;;;;38.37;23.27;;;9.30;99.90;;;;;;5164894;28;20613;-72
2021/11/01 21:41:15;;;;;;;42.57;24.67;;;9.20;99.90;;;;;;5148179;28;20235;-72
2021/11/01 21:43:48;;;;;;;43.07;25.53;;;9.20;99.90;;;;;;5147882;28;20261;-74
2021/11/01 21:46:20;;;;;;;45.73;24.83;;;9.10;99.90;;;;;;5148088;28;20204;-72
2021/11/01 21:48:53;;;;;;;42.53;23.63;;;9.10;99.90;;;;;;5148240;28;20246;-71
2021/11/01 21:51:26;;;;;;;42.23;25.63;;;9.00;99.90;;;;;;5148809;28;20524;-72
2021/11/01 21:54:12;;;;;;;41.30;24.33;;;9.00;99.90;;;;;;5162846;28;20770;-70
2021/11/01 21:57:15;;;;;;;42.20;24.60;;;8.90;99.90;;;;;;5158883;28;20214;-72
2021/11/01 21:59:54;;;;;;;43.57;25.60;;;8.90;99.90;;;;;;5164246;28;20600;-70
2021/11/01 22:16:46;;;;;;;43.33;25.30;;;9.00;99.90;;;;;;5144623;28;20212;-70
2021/11/01 22:25:28;;;;;;;45.47;26.20;;;9.00;99.90;;;;;;5112105;28;20234;-70
2021/11/01 22:39:33;;;;;;;44.90;26.13;;;9.00;99.90;;;;;;5220993;28;20745;-70
2021/11/01 22:56:35;;;;;;;46.53;25.50;;;8.90;99.90;;;;;;5221558;28;20207;-72
2021/11/01 22:59:08;;;;;;;40.20;24.43;;;8.90;99.90;;;;;;5231951;28;20224;-69
2021/11/01 23:01:42;;;;;;;46.10;26.77;;;8.90;99.90;;;;;;5233262;28;20501;-71
2021/11/01 23:32:18;;;;;;;53.80;29.73;;;8.30;99.90;;;;;;5167768;28;20215;-73
2021/11/01 23:34:52;;;;;;;53.73;29.77;;;8.10;99.90;;;;;;5168470;28;20207;-71
2021/11/01 23:37:24;;;;;;;54.17;30.17;;;8.00;99.90;;;;;;5170768;28;20313;-69
2021/11/01 23:40:03;;;;;;;49.23;29.30;;;7.90;99.90;;;;;;5199627;28;20227;-69
2021/11/01 23:42:35;;;;;;;50.47;28.83;;;7.90;99.90;;;;;;5273711;28;20200;-71
2021/11/01 23:45:07;;;;;;;53.87;29.80;;;7.80;99.90;;;;;;5239069;28;20204;-72
2021/11/01 23:47:39;;;;;;;49.90;28.57;;;7.70;99.90;;;;;;5273836;28;20512;-73
2021/11/01 23:50:11;;;;;;;48.60;28.70;;;7.60;99.90;;;;;;5255977;28;20200;-68
2021/11/01 23:52:55;;;;;;;52.57;29.90;;;7.50;99.90;;;;;;5273652;28;20580;-73
2021/11/01 23:55:27;;;;;;;50.17;29.27;;;7.50;99.90;;;;;;5274177;28;20188;-71
2021/11/01 23:58:00;;;;;;;51.13;28.70;;;7.40;99.90;;;;;;5256473;28;20185;-73
